sensor_id;sensor_type;location;lat;lon;timestamp;P1;durP1;ratioP1;P2;durP2;ratioP2
50689;SDS011;54375;48.298;11.238;2022-10-16T00:00:17;4.53;;;1.80;;
50689;SDS011;54375;48.298;11.238;2022-10-16T00:03:18;4.80;;;2.15;;
50689;SDS011;54375;48.298;11.238;2022-10-16T00:06:19;4.53;;;2.00;;
50689;SDS011;54375;48.298;11.238;2022-10-16T00:09:22;5.50;;;2.13;;
50689;SDS011;54375;48.298;11.238;2022-10-16T00:12:23;4.60;;;2.35;;
50689;SDS011;54375;48.298;11.238;2022-10-16T00:15:24;5.30;;;2.60;;
50689;SDS011;54375;48.298;11.238;2022-10-16T00:18:25;3.50;;;1.90;;
50689;SDS011;54375;48.298;11.238;2022-10-16T00:21:26;6.37;;;2.20;;
50689;SDS011;54375;48.298;11.238;2022-10-16T00:24:29;5.80;;;2.25;;
50689;SDS011;54375;48.298;11.238;2022-10-16T00:27:30;4.35;;;2.00;;
50689;SDS011;54375;48.298;11.238;2022-10-16T00:30:31;3.70;;;2.20;;
50689;SDS011;54375;48.298;11.238;2022-10-16T00:33:32;5.23;;;2.47;;
50689;SDS011;54375;48.298;11.238;2022-10-16T00:36:35;4.07;;;2.38;;
50689;SDS011;54375;48.298;11.238;2022-10-16T00:39:37;6.20;;;2.63;;
50689;SDS011;54375;48.298;11.238;2022-10-16T00:42:38;5.35;;;3.10;;
50689;SDS011;54375;48.298;11.238;2022-10-16T00:45:39;4.57;;;2.90;;
50689;SDS011;54375;48.298;11.238;2022-10-16T00:48:40;4.57;;;2.50;;
50689;SDS011;54375;48.298;11.238;2022-10-16T00:51:43;4.28;;;2.65;;
50689;SDS011;54375;48.298;11.238;2022-10-16T00:54:47;3.92;;;2.00;;
50689;SDS011;54375;48.298;11.238;2022-10-16T00:57:50;5.07;;;2.65;;
50689;SDS011;54375;48.298;11.238;2022-10-16T01:03:52;5.90;;;2.55;;
50689;SDS011;54375;48.298;11.238;2022-10-16T01:06:57;4.63;;;2.40;;
50689;SDS011;54375;48.298;11.238;2022-10-16T01:10:14;5.10;;;2.28;;
50689;SDS011;54375;48.298;11.238;2022-10-16T01:13:21;3.53;;;2.13;;
50689;SDS011;54375;48.298;11.238;2022-10-16T01:16:29;3.25;;;2.13;;
50689;SDS011;54375;48.298;11.238;2022-10-16T01:19:54;4.25;;;2.28;;
50689;SDS011;54375;48.298;11.238;2022-10-16T01:23:05;3.72;;;2.13;;
50689;SDS011;54375;48.298;11.238;2022-10-16T01:29:39;4.88;;;2.20;;
50689;SDS011;54375;48.298;11.238;2022-10-16T01:32:47;3.55;;;2.20;;
50689;SDS011;54375;48.298;11.238;2022-10-16T01:35:52;4.90;;;2.10;;
50689;SDS011;54375;48.298;11.238;2022-10-16T01:38:56;5.85;;;2.05;;
50689;SDS011;54375;48.298;11.238;2022-10-16T01:42:03;6.75;;;2.38;;
50689;SDS011;54375;48.298;11.238;2022-10-16T01:45:12;4.15;;;1.95;;
50689;SDS011;54375;48.298;11.238;2022-10-16T01:48:16;5.20;;;2.35;;
50689;SDS011;54375;48.298;11.238;2022-10-16T01:51:19;4.40;;;2.15;;
50689;SDS011;54375;48.298;11.238;2022-10-16T01:54:22;3.80;;;1.92;;
50689;SDS011;54375;48.298;11.238;2022-10-16T01:57:25;4.18;;;2.05;;
50689;SDS011;54375;48.298;11.238;2022-10-16T02:00:29;4.40;;;2.40;;
50689;SDS011;54375;48.298;11.238;2022-10-16T02:03:31;5.22;;;2.47;;
50689;SDS011;54375;48.298;11.238;2022-10-16T02:06:35;4.05;;;2.40;;
50689;SDS011;54375;48.298;11.238;2022-10-16T02:09:36;5.67;;;2.60;;
50689;SDS011;54375;48.298;11.238;2022-10-16T02:15:42;7.22;;;2.92;;
50689;SDS011;54375;48.298;11.238;2022-10-16T02:18:42;7.00;;;2.45;;
50689;SDS011;54375;48.298;11.238;2022-10-16T02:21:45;5.38;;;2.65;;
50689;SDS011;54375;48.298;11.238;2022-10-16T02:24:50;3.88;;;2.20;;
50689;SDS011;54375;48.298;11.238;2022-10-16T02:27:55;5.38;;;2.38;;
50689;SDS011;54375;48.298;11.238;2022-10-16T02:31:01;6.70;;;2.50;;
50689;SDS011;54375;48.298;11.238;2022-10-16T02:34:05;8.77;;;2.42;;
50689;SDS011;54375;48.298;11.238;2022-10-16T02:37:08;4.20;;;2.40;;
50689;SDS011;54375;48.298;11.238;2022-10-16T02:40:09;4.70;;;2.87;;
50689;SDS011;54375;48.298;11.238;2022-10-16T02:43:11;5.05;;;2.05;;
50689;SDS011;54375;48.298;11.238;2022-10-16T02:46:13;3.28;;;2.03;;
50689;SDS011;54375;48.298;11.238;2022-10-16T02:49:14;3.28;;;1.67;;
50689;SDS011;54375;48.298;11.238;2022-10-16T02:52:15;3.47;;;2.00;;
50689;SDS011;54375;48.298;11.238;2022-10-16T02:55:16;4.28;;;1.85;;
50689;SDS011;54375;48.298;11.238;2022-10-16T02:58:17;5.25;;;3.58;;
50689;SDS011;54375;48.298;11.238;2022-10-16T03:01:20;2.53;;;1.77;;
50689;SDS011;54375;48.298;11.238;2022-10-16T03:04:21;4.35;;;1.88;;
50689;SDS011;54375;48.298;11.238;2022-10-16T03:07:23;5.18;;;2.20;;
50689;SDS011;54375;48.298;11.238;2022-10-16T03:10:23;3.80;;;2.13;;
50689;SDS011;54375;48.298;11.238;2022-10-16T03:13:24;6.20;;;2.90;;
50689;SDS011;54375;48.298;11.238;2022-10-16T03:16:26;8.17;;;2.33;;
50689;SDS011;54375;48.298;11.238;2022-10-16T03:19:27;4.03;;;2.42;;
50689;SDS011;54375;48.298;11.238;2022-10-16T03:22:28;7.15;;;3.05;;
50689;SDS011;54375;48.298;11.238;2022-10-16T03:25:29;9.27;;;2.70;;
50689;SDS011;54375;48.298;11.238;2022-10-16T03:28:30;5.53;;;2.30;;
50689;SDS011;54375;48.298;11.238;2022-10-16T03:31:32;3.07;;;2.03;;
50689;SDS011;54375;48.298;11.238;2022-10-16T03:34:33;3.70;;;2.10;;
50689;SDS011;54375;48.298;11.238;2022-10-16T03:37:34;3.73;;;2.20;;
50689;SDS011;54375;48.298;11.238;2022-10-16T03:40:35;4.47;;;2.10;;
50689;SDS011;54375;48.298;11.238;2022-10-16T03:43:35;4.80;;;2.30;;
50689;SDS011;54375;48.298;11.238;2022-10-16T03:46:37;5.17;;;2.40;;
50689;SDS011;54375;48.298;11.238;2022-10-16T03:49:38;5.80;;;2.85;;
50689;SDS011;54375;48.298;11.238;2022-10-16T03:52:39;5.77;;;2.53;;
50689;SDS011;54375;48.298;11.238;2022-10-16T03:55:41;5.17;;;2.93;;
50689;SDS011;54375;48.298;11.238;2022-10-16T03:58:42;8.20;;;3.15;;
50689;SDS011;54375;48.298;11.238;2022-10-16T04:01:44;8.07;;;3.33;;
50689;SDS011;54375;48.298;11.238;2022-10-16T04:04:45;11.50;;;4.25;;
50689;SDS011;54375;48.298;11.238;2022-10-16T04:07:45;6.40;;;3.30;;
50689;SDS011;54375;48.298;11.238;2022-10-16T04:10:46;6.67;;;3.63;;
50689;SDS011;54375;48.298;11.238;2022-10-16T04:13:47;7.23;;;3.53;;
50689;SDS011;54375;48.298;11.238;2022-10-16T04:16:49;7.43;;;3.90;;
50689;SDS011;54375;48.298;11.238;2022-10-16T04:19:50;8.43;;;3.35;;
50689;SDS011;54375;48.298;11.238;2022-10-16T04:22:51;6.83;;;3.80;;
50689;SDS011;54375;48.298;11.238;2022-10-16T04:25:51;5.10;;;2.87;;
50689;SDS011;54375;48.298;11.238;2022-10-16T04:28:52;6.67;;;3.70;;
50689;SDS011;54375;48.298;11.238;2022-10-16T04:31:54;7.70;;;3.23;;
50689;SDS011;54375;48.298;11.238;2022-10-16T04:34:55;8.32;;;2.75;;
50689;SDS011;54375;48.298;11.238;2022-10-16T04:37:56;5.97;;;2.33;;
50689;SDS011;54375;48.298;11.238;2022-10-16T04:40:57;3.00;;;2.00;;
50689;SDS011;54375;48.298;11.238;2022-10-16T04:43:58;4.80;;;2.50;;
50689;SDS011;54375;48.298;11.238;2022-10-16T04:47:00;12.83;;;3.40;;
50689;SDS011;54375;48.298;11.238;2022-10-16T04:50:01;8.23;;;3.13;;
50689;SDS011;54375;48.298;11.238;2022-10-16T04:53:02;5.73;;;2.70;;
50689;SDS011;54375;48.298;11.238;2022-10-16T04:56:03;4.87;;;2.70;;
50689;SDS011;54375;48.298;11.238;2022-10-16T04:59:04;4.23;;;2.67;;
50689;SDS011;54375;48.298;11.238;2022-10-16T05:02:06;3.87;;;2.43;;
50689;SDS011;54375;48.298;11.238;2022-10-16T05:05:06;4.35;;;2.70;;
50689;SDS011;54375;48.298;11.238;2022-10-16T05:08:08;3.85;;;2.33;;
50689;SDS011;54375;48.298;11.238;2022-10-16T05:11:08;4.00;;;2.57;;
50689;SDS011;54375;48.298;11.238;2022-10-16T05:14:09;3.10;;;2.03;;
50689;SDS011;54375;48.298;11.238;2022-10-16T05:17:11;5.83;;;2.27;;
50689;SDS011;54375;48.298;11.238;2022-10-16T05:20:12;5.05;;;2.30;;
50689;SDS011;54375;48.298;11.238;2022-10-16T05:23:13;3.23;;;1.90;;
50689;SDS011;54375;48.298;11.238;2022-10-16T05:26:13;3.60;;;2.10;;
50689;SDS011;54375;48.298;11.238;2022-10-16T05:29:14;2.80;;;1.90;;
50689;SDS011;54375;48.298;11.238;2022-10-16T05:32:16;4.43;;;1.83;;
50689;SDS011;54375;48.298;11.238;2022-10-16T05:35:18;10.07;;;2.20;;
50689;SDS011;54375;48.298;11.238;2022-10-16T05:38:19;6.40;;;2.00;;
50689;SDS011;54375;48.298;11.238;2022-10-16T05:41:20;4.93;;;2.07;;
50689;SDS011;54375;48.298;11.238;2022-10-16T05:44:21;4.87;;;2.00;;
50689;SDS011;54375;48.298;11.238;2022-10-16T05:47:23;4.90;;;1.93;;
50689;SDS011;54375;48.298;11.238;2022-10-16T05:50:24;4.13;;;2.00;;
50689;SDS011;54375;48.298;11.238;2022-10-16T05:53:24;3.87;;;2.30;;
50689;SDS011;54375;48.298;11.238;2022-10-16T05:56:25;6.33;;;2.20;;
50689;SDS011;54375;48.298;11.238;2022-10-16T05:59:26;4.97;;;2.77;;
50689;SDS011;54375;48.298;11.238;2022-10-16T06:02:28;7.00;;;3.00;;
50689;SDS011;54375;48.298;11.238;2022-10-16T06:05:28;4.95;;;2.60;;
50689;SDS011;54375;48.298;11.238;2022-10-16T06:08:29;4.90;;;2.30;;
50689;SDS011;54375;48.298;11.238;2022-10-16T06:11:32;3.30;;;2.25;;
50689;SDS011;54375;48.298;11.238;2022-10-16T06:14:33;3.47;;;2.47;;
50689;SDS011;54375;48.298;11.238;2022-10-16T06:17:35;3.80;;;2.20;;
50689;SDS011;54375;48.298;11.238;2022-10-16T06:20:36;5.47;;;2.67;;
50689;SDS011;54375;48.298;11.238;2022-10-16T06:23:37;7.20;;;2.90;;
50689;SDS011;54375;48.298;11.238;2022-10-16T06:26:38;7.30;;;2.63;;
50689;SDS011;54375;48.298;11.238;2022-10-16T06:29:38;4.60;;;2.88;;
50689;SDS011;54375;48.298;11.238;2022-10-16T06:32:41;4.65;;;2.78;;
50689;SDS011;54375;48.298;11.238;2022-10-16T06:35:41;12.45;;;4.00;;
50689;SDS011;54375;48.298;11.238;2022-10-16T06:38:42;6.13;;;3.27;;
50689;SDS011;54375;48.298;11.238;2022-10-16T06:41:44;5.22;;;2.72;;
50689;SDS011;54375;48.298;11.238;2022-10-16T06:44:44;7.07;;;2.70;;
50689;SDS011;54375;48.298;11.238;2022-10-16T06:47:47;5.07;;;2.80;;
50689;SDS011;54375;48.298;11.238;2022-10-16T06:50:57;5.72;;;2.90;;
50689;SDS011;54375;48.298;11.238;2022-10-16T06:53:59;5.25;;;3.00;;
50689;SDS011;54375;48.298;11.238;2022-10-16T06:56:59;5.88;;;2.83;;
50689;SDS011;54375;48.298;11.238;2022-10-16T07:00:00;5.00;;;2.70;;
50689;SDS011;54375;48.298;11.238;2022-10-16T07:03:02;4.50;;;2.67;;
50689;SDS011;54375;48.298;11.238;2022-10-16T07:06:03;3.70;;;2.60;;
50689;SDS011;54375;48.298;11.238;2022-10-16T07:09:06;4.75;;;2.55;;
50689;SDS011;54375;48.298;11.238;2022-10-16T07:12:10;8.48;;;3.72;;
50689;SDS011;54375;48.298;11.238;2022-10-16T07:15:10;4.77;;;2.60;;
50689;SDS011;54375;48.298;11.238;2022-10-16T07:18:12;6.27;;;3.07;;
50689;SDS011;54375;48.298;11.238;2022-10-16T07:21:14;5.22;;;2.88;;
50689;SDS011;54375;48.298;11.238;2022-10-16T07:24:16;4.68;;;2.83;;
50689;SDS011;54375;48.298;11.238;2022-10-16T07:27:17;5.40;;;2.63;;
50689;SDS011;54375;48.298;11.238;2022-10-16T07:30:17;5.80;;;3.10;;
50689;SDS011;54375;48.298;11.238;2022-10-16T07:33:20;6.70;;;2.43;;
50689;SDS011;54375;48.298;11.238;2022-10-16T07:36:20;3.78;;;2.10;;
50689;SDS011;54375;48.298;11.238;2022-10-16T07:39:21;3.95;;;2.50;;
50689;SDS011;54375;48.298;11.238;2022-10-16T07:42:22;6.33;;;2.40;;
50689;SDS011;54375;48.298;11.238;2022-10-16T07:45:23;4.63;;;2.67;;
50689;SDS011;54375;48.298;11.238;2022-10-16T07:48:26;3.73;;;2.40;;
50689;SDS011;54375;48.298;11.238;2022-10-16T07:51:28;4.43;;;2.50;;
50689;SDS011;54375;48.298;11.238;2022-10-16T07:54:29;4.43;;;2.70;;
50689;SDS011;54375;48.298;11.238;2022-10-16T07:57:29;4.30;;;2.20;;
50689;SDS011;54375;48.298;11.238;2022-10-16T08:00:30;3.90;;;2.50;;
50689;SDS011;54375;48.298;11.238;2022-10-16T08:03:33;4.35;;;2.25;;
50689;SDS011;54375;48.298;11.238;2022-10-16T08:06:34;5.25;;;2.35;;
50689;SDS011;54375;48.298;11.238;2022-10-16T08:09:36;3.92;;;2.30;;
50689;SDS011;54375;48.298;11.238;2022-10-16T08:12:37;3.63;;;2.40;;
50689;SDS011;54375;48.298;11.238;2022-10-16T08:15:37;4.97;;;2.43;;
50689;SDS011;54375;48.298;11.238;2022-10-16T08:18:40;3.97;;;2.40;;
50689;SDS011;54375;48.298;11.238;2022-10-16T08:21:41;3.58;;;2.28;;
50689;SDS011;54375;48.298;11.238;2022-10-16T08:24:42;4.97;;;2.10;;
50689;SDS011;54375;48.298;11.238;2022-10-16T08:27:42;7.37;;;2.20;;
50689;SDS011;54375;48.298;11.238;2022-10-16T08:30:43;3.97;;;1.87;;
50689;SDS011;54375;48.298;11.238;2022-10-16T08:33:45;5.07;;;2.37;;
50689;SDS011;54375;48.298;11.238;2022-10-16T08:36:46;5.15;;;2.05;;
50689;SDS011;54375;48.298;11.238;2022-10-16T08:39:47;5.97;;;2.13;;
50689;SDS011;54375;48.298;11.238;2022-10-16T08:42:52;4.00;;;1.87;;
50689;SDS011;54375;48.298;11.238;2022-10-16T08:46:08;4.55;;;1.75;;
50689;SDS011;54375;48.298;11.238;2022-10-16T08:49:21;4.25;;;1.92;;
50689;SDS011;54375;48.298;11.238;2022-10-16T08:52:21;2.53;;;1.67;;
50689;SDS011;54375;48.298;11.238;2022-10-16T08:55:30;4.45;;;1.90;;
50689;SDS011;54375;48.298;11.238;2022-10-16T08:58:34;5.28;;;1.80;;
50689;SDS011;54375;48.298;11.238;2022-10-16T09:01:36;2.75;;;1.50;;
50689;SDS011;54375;48.298;11.238;2022-10-16T09:04:55;4.60;;;1.50;;
50689;SDS011;54375;48.298;11.238;2022-10-16T09:08:19;4.65;;;1.50;;
50689;SDS011;54375;48.298;11.238;2022-10-16T09:11:30;2.60;;;1.48;;
50689;SDS011;54375;48.298;11.238;2022-10-16T09:14:47;3.45;;;1.80;;
50689;SDS011;54375;48.298;11.238;2022-10-16T09:17:56;2.50;;;1.40;;
50689;SDS011;54375;48.298;11.238;2022-10-16T09:21:04;3.83;;;1.50;;
50689;SDS011;54375;48.298;11.238;2022-10-16T09:24:13;2.88;;;1.20;;
50689;SDS011;54375;48.298;11.238;2022-10-16T09:27:15;1.92;;;1.42;;
50689;SDS011;54375;48.298;11.238;2022-10-16T09:30:17;1.92;;;1.20;;
50689;SDS011;54375;48.298;11.238;2022-10-16T09:33:20;1.90;;;1.30;;
50689;SDS011;54375;48.298;11.238;2022-10-16T09:36:25;2.75;;;1.33;;
50689;SDS011;54375;48.298;11.238;2022-10-16T09:39:28;2.00;;;1.20;;
50689;SDS011;54375;48.298;11.238;2022-10-16T09:42:30;3.33;;;1.40;;
50689;SDS011;54375;48.298;11.238;2022-10-16T09:45:32;3.53;;;1.52;;
50689;SDS011;54375;48.298;11.238;2022-10-16T09:48:35;2.20;;;1.10;;
50689;SDS011;54375;48.298;11.238;2022-10-16T09:51:39;4.28;;;1.30;;
50689;SDS011;54375;48.298;11.238;2022-10-16T09:54:48;3.47;;;1.45;;
50689;SDS011;54375;48.298;11.238;2022-10-16T09:57:50;1.42;;;0.90;;
50689;SDS011;54375;48.298;11.238;2022-10-16T10:00:51;2.92;;;1.08;;
50689;SDS011;54375;48.298;11.238;2022-10-16T10:03:55;1.70;;;0.95;;
50689;SDS011;54375;48.298;11.238;2022-10-16T10:06:58;1.77;;;0.90;;
50689;SDS011;54375;48.298;11.238;2022-10-16T10:09:59;1.75;;;1.00;;
50689;SDS011;54375;48.298;11.238;2022-10-16T10:13:01;1.88;;;0.98;;
50689;SDS011;54375;48.298;11.238;2022-10-16T10:16:02;3.05;;;1.08;;
50689;SDS011;54375;48.298;11.238;2022-10-16T10:19:02;2.22;;;1.17;;
50689;SDS011;54375;48.298;11.238;2022-10-16T10:22:12;2.50;;;0.70;;
50689;SDS011;54375;48.298;11.238;2022-10-16T10:25:23;1.58;;;0.90;;
50689;SDS011;54375;48.298;11.238;2022-10-16T10:28:45;2.05;;;1.10;;
50689;SDS011;54375;48.298;11.238;2022-10-16T10:31:57;2.65;;;0.98;;
50689;SDS011;54375;48.298;11.238;2022-10-16T10:35:07;1.15;;;0.70;;
50689;SDS011;54375;48.298;11.238;2022-10-16T10:38:20;2.42;;;0.98;;
50689;SDS011;54375;48.298;11.238;2022-10-16T10:41:53;3.13;;;1.05;;
50689;SDS011;54375;48.298;11.238;2022-10-16T10:45:12;2.58;;;1.00;;
50689;SDS011;54375;48.298;11.238;2022-10-16T10:48:24;1.10;;;0.85;;
50689;SDS011;54375;48.298;11.238;2022-10-16T10:51:37;1.33;;;0.80;;
50689;SDS011;54375;48.298;11.238;2022-10-16T10:54:48;2.72;;;0.93;;
50689;SDS011;54375;48.298;11.238;2022-10-16T10:58:00;1.58;;;0.98;;
50689;SDS011;54375;48.298;11.238;2022-10-16T11:01:15;3.47;;;0.90;;
50689;SDS011;54375;48.298;11.238;2022-10-16T11:07:48;2.40;;;0.80;;
50689;SDS011;54375;48.298;11.238;2022-10-16T11:10:54;2.80;;;0.70;;
50689;SDS011;54375;48.298;11.238;2022-10-16T11:14:00;2.88;;;0.90;;
50689;SDS011;54375;48.298;11.238;2022-10-16T11:17:08;1.77;;;1.02;;
50689;SDS011;54375;48.298;11.238;2022-10-16T11:20:13;5.18;;;0.93;;
50689;SDS011;54375;48.298;11.238;2022-10-16T11:23:18;2.70;;;0.85;;
50689;SDS011;54375;48.298;11.238;2022-10-16T11:26:27;2.90;;;0.90;;
50689;SDS011;54375;48.298;11.238;2022-10-16T11:29:30;1.23;;;0.80;;
50689;SDS011;54375;48.298;11.238;2022-10-16T11:32:35;3.08;;;0.70;;
50689;SDS011;54375;48.298;11.238;2022-10-16T11:35:47;1.75;;;0.70;;
50689;SDS011;54375;48.298;11.238;2022-10-16T11:38:55;3.85;;;1.13;;
50689;SDS011;54375;48.298;11.238;2022-10-16T11:42:04;2.88;;;0.90;;
50689;SDS011;54375;48.298;11.238;2022-10-16T11:45:13;1.83;;;0.88;;
50689;SDS011;54375;48.298;11.238;2022-10-16T11:48:25;1.08;;;0.68;;
50689;SDS011;54375;48.298;11.238;2022-10-16T11:51:31;3.17;;;0.93;;
50689;SDS011;54375;48.298;11.238;2022-10-16T11:54:37;2.63;;;0.90;;
50689;SDS011;54375;48.298;11.238;2022-10-16T11:57:47;2.03;;;1.02;;
50689;SDS011;54375;48.298;11.238;2022-10-16T12:00:52;2.78;;;1.00;;
50689;SDS011;54375;48.298;11.238;2022-10-16T12:04:02;1.65;;;0.90;;
50689;SDS011;54375;48.298;11.238;2022-10-16T12:07:15;1.50;;;0.80;;
50689;SDS011;54375;48.298;11.238;2022-10-16T12:10:20;1.50;;;0.95;;
50689;SDS011;54375;48.298;11.238;2022-10-16T12:13:29;2.20;;;0.80;;
50689;SDS011;54375;48.298;11.238;2022-10-16T12:16:31;0.70;;;0.60;;
50689;SDS011;54375;48.298;11.238;2022-10-16T12:19:32;2.90;;;0.95;;
50689;SDS011;54375;48.298;11.238;2022-10-16T12:22:33;5.70;;;1.05;;
50689;SDS011;54375;48.298;11.238;2022-10-16T12:25:34;1.20;;;0.60;;
50689;SDS011;54375;48.298;11.238;2022-10-16T12:28:38;2.30;;;0.90;;
50689;SDS011;54375;48.298;11.238;2022-10-16T12:31:41;1.00;;;0.90;;
50689;SDS011;54375;48.298;11.238;2022-10-16T12:34:45;1.73;;;0.77;;
50689;SDS011;54375;48.298;11.238;2022-10-16T12:37:48;1.83;;;0.90;;
50689;SDS011;54375;48.298;11.238;2022-10-16T12:40:55;3.85;;;0.93;;
50689;SDS011;54375;48.298;11.238;2022-10-16T12:44:00;1.45;;;0.73;;
50689;SDS011;54375;48.298;11.238;2022-10-16T12:47:02;0.80;;;0.80;;
50689;SDS011;54375;48.298;11.238;2022-10-16T12:50:03;2.92;;;0.70;;
50689;SDS011;54375;48.298;11.238;2022-10-16T12:53:23;1.98;;;0.80;;
50689;SDS011;54375;48.298;11.238;2022-10-16T12:56:27;1.10;;;0.65;;
50689;SDS011;54375;48.298;11.238;2022-10-16T13:03:02;1.63;;;1.00;;
50689;SDS011;54375;48.298;11.238;2022-10-16T13:06:37;3.10;;;0.80;;
50689;SDS011;54375;48.298;11.238;2022-10-16T13:09:48;2.20;;;0.60;;
50689;SDS011;54375;48.298;11.238;2022-10-16T13:13:09;1.20;;;0.70;;
50689;SDS011;54375;48.298;11.238;2022-10-16T13:16:23;1.10;;;0.60;;
50689;SDS011;54375;48.298;11.238;2022-10-16T13:19:32;1.80;;;0.87;;
50689;SDS011;54375;48.298;11.238;2022-10-16T13:22:40;0.65;;;0.60;;
50689;SDS011;54375;48.298;11.238;2022-10-16T13:25:51;1.92;;;0.80;;
50689;SDS011;54375;48.298;11.238;2022-10-16T13:29:02;1.02;;;0.60;;
50689;SDS011;54375;48.298;11.238;2022-10-16T13:32:08;1.77;;;0.60;;
50689;SDS011;54375;48.298;11.238;2022-10-16T13:35:18;1.00;;;0.60;;
50689;SDS011;54375;48.298;11.238;2022-10-16T13:38:22;1.10;;;0.65;;
50689;SDS011;54375;48.298;11.238;2022-10-16T13:41:24;1.20;;;0.55;;
50689;SDS011;54375;48.298;11.238;2022-10-16T13:47:28;0.82;;;0.50;;
50689;SDS011;54375;48.298;11.238;2022-10-16T13:50:29;4.68;;;0.80;;
50689;SDS011;54375;48.298;11.238;2022-10-16T13:56:32;1.85;;;0.60;;
50689;SDS011;54375;48.298;11.238;2022-10-16T13:59:34;3.97;;;1.00;;
50689;SDS011;54375;48.298;11.238;2022-10-16T14:02:37;0.32;;;0.30;;
50689;SDS011;54375;48.298;11.238;2022-10-16T14:05:42;1.75;;;0.65;;
50689;SDS011;54375;48.298;11.238;2022-10-16T14:08:48;1.23;;;0.60;;
50689;SDS011;54375;48.298;11.238;2022-10-16T14:11:55;2.25;;;0.68;;
50689;SDS011;54375;48.298;11.238;2022-10-16T14:14:57;2.10;;;0.60;;
50689;SDS011;54375;48.298;11.238;2022-10-16T14:18:01;1.80;;;0.50;;
50689;SDS011;54375;48.298;11.238;2022-10-16T14:21:04;1.75;;;0.50;;
50689;SDS011;54375;48.298;11.238;2022-10-16T14:24:10;1.83;;;0.60;;
50689;SDS011;54375;48.298;11.238;2022-10-16T14:27:20;1.42;;;0.63;;
50689;SDS011;54375;48.298;11.238;2022-10-16T14:30:26;2.10;;;0.70;;
50689;SDS011;54375;48.298;11.238;2022-10-16T14:33:32;1.23;;;0.60;;
50689;SDS011;54375;48.298;11.238;2022-10-16T14:36:34;3.75;;;0.80;;
50689;SDS011;54375;48.298;11.238;2022-10-16T14:39:35;1.02;;;0.65;;
50689;SDS011;54375;48.298;11.238;2022-10-16T14:42:36;2.47;;;0.77;;
50689;SDS011;54375;48.298;11.238;2022-10-16T14:45:36;1.73;;;0.57;;
50689;SDS011;54375;48.298;11.238;2022-10-16T14:48:41;2.58;;;0.50;;
50689;SDS011;54375;48.298;11.238;2022-10-16T14:51:42;1.67;;;0.63;;
50689;SDS011;54375;48.298;11.238;2022-10-16T14:54:43;1.48;;;0.73;;
50689;SDS011;54375;48.298;11.238;2022-10-16T14:57:47;3.90;;;0.70;;
50689;SDS011;54375;48.298;11.238;2022-10-16T15:00:48;2.75;;;0.70;;
50689;SDS011;54375;48.298;11.238;2022-10-16T15:03:50;3.28;;;0.80;;
50689;SDS011;54375;48.298;11.238;2022-10-16T15:06:51;3.03;;;1.75;;
50689;SDS011;54375;48.298;11.238;2022-10-16T15:09:52;5.18;;;2.80;;
50689;SDS011;54375;48.298;11.238;2022-10-16T15:12:53;10.77;;;7.45;;
50689;SDS011;54375;48.298;11.238;2022-10-16T15:15:54;18.98;;;15.05;;
50689;SDS011;54375;48.298;11.238;2022-10-16T15:18:56;4.55;;;2.97;;
50689;SDS011;54375;48.298;11.238;2022-10-16T15:21:57;5.63;;;2.00;;
50689;SDS011;54375;48.298;11.238;2022-10-16T15:24:58;1.95;;;1.30;;
50689;SDS011;54375;48.298;11.238;2022-10-16T15:27:59;6.13;;;3.35;;
50689;SDS011;54375;48.298;11.238;2022-10-16T15:31:01;3.20;;;1.67;;
50689;SDS011;54375;48.298;11.238;2022-10-16T15:34:05;5.32;;;1.30;;
50689;SDS011;54375;48.298;11.238;2022-10-16T15:37:08;2.67;;;0.93;;
50689;SDS011;54375;48.298;11.238;2022-10-16T15:40:09;2.05;;;0.98;;
50689;SDS011;54375;48.298;11.238;2022-10-16T15:43:10;2.78;;;1.00;;
50689;SDS011;54375;48.298;11.238;2022-10-16T15:46:12;6.18;;;0.95;;
50689;SDS011;54375;48.298;11.238;2022-10-16T15:49:19;3.95;;;1.17;;
50689;SDS011;54375;48.298;11.238;2022-10-16T15:52:19;3.25;;;0.90;;
50689;SDS011;54375;48.298;11.238;2022-10-16T15:55:20;2.60;;;1.00;;
50689;SDS011;54375;48.298;11.238;2022-10-16T15:58:21;3.67;;;0.73;;
50689;SDS011;54375;48.298;11.238;2022-10-16T16:01:22;4.03;;;1.20;;
50689;SDS011;54375;48.298;11.238;2022-10-16T16:04:24;4.07;;;1.20;;
50689;SDS011;54375;48.298;11.238;2022-10-16T16:07:25;3.53;;;1.20;;
50689;SDS011;54375;48.298;11.238;2022-10-16T16:10:25;1.73;;;0.90;;
50689;SDS011;54375;48.298;11.238;2022-10-16T16:13:26;2.35;;;1.08;;
50689;SDS011;54375;48.298;11.238;2022-10-16T16:16:27;4.40;;;1.00;;
50689;SDS011;54375;48.298;11.238;2022-10-16T16:19:29;5.38;;;1.35;;
50689;SDS011;54375;48.298;11.238;2022-10-16T16:22:30;3.63;;;1.10;;
50689;SDS011;54375;48.298;11.238;2022-10-16T16:25:31;4.75;;;1.15;;
50689;SDS011;54375;48.298;11.238;2022-10-16T16:28:32;4.32;;;1.35;;
50689;SDS011;54375;48.298;11.238;2022-10-16T16:31:33;4.30;;;1.17;;
50689;SDS011;54375;48.298;11.238;2022-10-16T16:34:35;3.55;;;1.20;;
50689;SDS011;54375;48.298;11.238;2022-10-16T16:37:35;2.67;;;1.00;;
50689;SDS011;54375;48.298;11.238;2022-10-16T16:40:36;2.38;;;1.48;;
50689;SDS011;54375;48.298;11.238;2022-10-16T16:43:37;5.25;;;2.70;;
50689;SDS011;54375;48.298;11.238;2022-10-16T16:46:38;6.85;;;3.65;;
50689;SDS011;54375;48.298;11.238;2022-10-16T16:49:40;7.72;;;3.05;;
50689;SDS011;54375;48.298;11.238;2022-10-16T16:52:41;3.10;;;1.83;;
50689;SDS011;54375;48.298;11.238;2022-10-16T16:55:42;4.03;;;1.65;;
50689;SDS011;54375;48.298;11.238;2022-10-16T16:58:44;4.40;;;1.50;;
50689;SDS011;54375;48.298;11.238;2022-10-16T17:01:45;2.40;;;1.40;;
50689;SDS011;54375;48.298;11.238;2022-10-16T17:04:48;2.05;;;1.17;;
50689;SDS011;54375;48.298;11.238;2022-10-16T17:07:48;3.40;;;1.25;;
50689;SDS011;54375;48.298;11.238;2022-10-16T17:10:49;1.87;;;1.20;;
50689;SDS011;54375;48.298;11.238;2022-10-16T17:13:50;2.50;;;1.37;;
50689;SDS011;54375;48.298;11.238;2022-10-16T17:16:52;5.35;;;1.40;;
50689;SDS011;54375;48.298;11.238;2022-10-16T17:19:54;5.05;;;1.50;;
50689;SDS011;54375;48.298;11.238;2022-10-16T17:22:55;2.83;;;1.20;;
50689;SDS011;54375;48.298;11.238;2022-10-16T17:25:56;2.47;;;1.10;;
50689;SDS011;54375;48.298;11.238;2022-10-16T17:28:57;2.63;;;1.13;;
50689;SDS011;54375;48.298;11.238;2022-10-16T17:31:59;3.03;;;1.38;;
50689;SDS011;54375;48.298;11.238;2022-10-16T17:35:01;4.23;;;1.30;;
50689;SDS011;54375;48.298;11.238;2022-10-16T17:38:02;3.67;;;1.48;;
50689;SDS011;54375;48.298;11.238;2022-10-16T17:41:09;2.17;;;1.27;;
50689;SDS011;54375;48.298;11.238;2022-10-16T17:44:11;4.15;;;1.48;;
50689;SDS011;54375;48.298;11.238;2022-10-16T17:47:12;4.95;;;1.92;;
50689;SDS011;54375;48.298;11.238;2022-10-16T17:50:15;4.30;;;1.63;;
50689;SDS011;54375;48.298;11.238;2022-10-16T17:53:16;6.28;;;1.77;;
50689;SDS011;54375;48.298;11.238;2022-10-16T17:56:17;4.43;;;1.97;;
50689;SDS011;54375;48.298;11.238;2022-10-16T17:59:18;5.65;;;2.00;;
50689;SDS011;54375;48.298;11.238;2022-10-16T18:02:18;6.60;;;2.17;;
50689;SDS011;54375;48.298;11.238;2022-10-16T18:05:21;4.88;;;2.42;;
50689;SDS011;54375;48.298;11.238;2022-10-16T18:08:22;4.07;;;2.10;;
50689;SDS011;54375;48.298;11.238;2022-10-16T18:11:23;5.57;;;2.37;;
50689;SDS011;54375;48.298;11.238;2022-10-16T18:14:24;5.43;;;2.03;;
50689;SDS011;54375;48.298;11.238;2022-10-16T18:17:26;4.82;;;1.90;;
50689;SDS011;54375;48.298;11.238;2022-10-16T18:20:29;6.43;;;1.80;;
50689;SDS011;54375;48.298;11.238;2022-10-16T18:23:31;5.45;;;1.50;;
50689;SDS011;54375;48.298;11.238;2022-10-16T18:26:33;3.55;;;1.80;;
50689;SDS011;54375;48.298;11.238;2022-10-16T18:29:34;4.67;;;1.93;;